Time;durP1;ratioP1;P1;durP2;ratioP2;P2;SDS_P1;SDS_P2;PMS_P1;PMS_P2;Temp;Humidity;BMP_temperature;BMP_pressure;BME280_temperature;BME280_humidity;BME280_pressure;Samples;Min_cycle;Max_cycle;Signal;HPM_P1;HPM_P2
2023/02/22 00:00:26;;;;;;;244.73;29.07;;;6.00;99.90;;;;;;5094592;23;20169;-91
2023/02/22 00:02:28;;;;;;;216.50;26.00;;;5.90;99.90;;;;;;5070669;23;20157;-90
2023/02/22 00:04:29;;;;;;;241.60;30.23;;;5.70;99.90;;;;;;5094813;23;20188;-91
2023/02/22 00:06:29;;;;;;;189.37;25.30;;;5.60;99.90;;;;;;5094686;23;20149;-90
2023/02/22 00:08:33;;;;;;;196.37;25.27;;;5.60;99.90;;;;;;5094673;23;20220;-91
2023/02/22 00:10:37;;;;;;;203.63;26.53;;;5.30;99.90;;;;;;5094364;23;20196;-91
2023/02/22 00:12:40;;;;;;;205.77;25.73;;;5.00;99.90;;;;;;5094773;23;20209;-91
2023/02/22 00:14:41;;;;;;;189.73;26.40;;;4.60;99.90;;;;;;5119504;23;20148;-91
2023/02/22 00:16:41;;;;;;;220.77;27.97;;;4.90;99.90;;;;;;5094318;23;20272;-95
2023/02/22 00:18:43;;;;;;;231.07;25.97;;;5.20;99.90;;;;;;5069730;23;20221;-91
2023/02/22 00:20:44;;;;;;;175.93;25.27;;;5.30;99.90;;;;;;5069759;23;20178;-90
2023/02/22 00:22:46;;;;;;;294.70;30.73;;;5.20;99.90;;;;;;5069863;23;20236;-90
2023/02/22 00:24:49;;;;;;;259.67;27.13;;;5.50;99.90;;;;;;5119444;23;20160;-90
2023/02/22 00:26:56;;;;;;;264.23;30.03;;;5.80;99.90;;;;;;5094638;23;20153;-91
2023/02/22 00:28:57;;;;;;;303.13;27.50;;;5.90;99.90;;;;;;5119223;23;20227;-91
2023/02/22 00:30:58;;;;;;;228.43;27.13;;;5.90;99.90;;;;;;5069802;23;20466;-93
2023/02/22 00:33:00;;;;;;;241.70;26.90;;;5.70;99.90;;;;;;5070428;23;20146;-91
2023/02/22 00:35:04;;;;;;;208.67;25.97;;;5.70;99.90;;;;;;5070152;23;20158;-91
2023/02/22 00:37:05;;;;;;;265.90;27.23;;;5.20;99.90;;;;;;5070206;23;20172;-91
2023/02/22 00:39:06;;;;;;;177.43;26.63;;;4.80;99.90;;;;;;5094645;23;20149;-91
2023/02/22 00:41:07;;;;;;;295.53;26.73;;;4.50;99.90;;;;;;5094293;23;20153;-92
2023/02/22 00:43:08;;;;;;;302.73;28.23;;;4.30;99.90;;;;;;5069813;23;20204;-91
2023/02/22 00:45:09;;;;;;;244.30;27.03;;;4.30;99.90;;;;;;5094285;23;20532;-91
2023/02/22 00:47:10;;;;;;;263.20;26.27;;;4.40;99.90;;;;;;5069880;23;20233;-90
2023/02/22 00:49:10;;;;;;;315.80;30.13;;;4.30;99.90;;;;;;5069679;23;20177;-91
2023/02/22 00:51:11;;;;;;;304.27;28.00;;;4.20;99.90;;;;;;5069979;23;20153;-91
2023/02/22 00:53:12;;;;;;;224.93;28.43;;;4.30;99.90;;;;;;5070424;23;20150;-90
2023/02/22 00:55:19;;;;;;;377.50;33.17;;;4.50;99.90;;;;;;5069983;23;20213;-91
2023/02/22 00:57:21;;;;;;;299.70;31.37;;;4.60;99.90;;;;;;5094468;23;20160;-89
2023/02/22 00:59:22;;;;;;;262.00;29.50;;;4.80;99.90;;;;;;5118869;23;20168;-90
2023/02/22 01:01:24;;;;;;;292.90;28.50;;;4.90;99.90;;;;;;5119061;23;20235;-92
2023/02/22 01:03:24;;;;;;;459.23;33.87;;;4.90;99.90;;;;;;5069990;23;20659;-90
2023/02/22 01:05:27;;;;;;;388.83;31.70;;;5.30;99.90;;;;;;5094321;23;20164;-91
2023/02/22 01:07:28;;;;;;;417.07;31.67;;;5.40;99.90;;;;;;5118981;23;20152;-91
2023/02/22 01:09:29;;;;;;;474.80;35.13;;;5.80;99.90;;;;;;5094053;23;20642;-91
2023/02/22 01:11:30;;;;;;;379.83;32.70;;;6.00;99.90;;;;;;5069862;23;20582;-90
2023/02/22 01:13:31;;;;;;;440.30;34.10;;;5.80;99.90;;;;;;5093608;23;20165;-90
2023/02/22 01:15:35;;;;;;;304.30;29.53;;;5.50;99.90;;;;;;5118714;23;20685;-91
2023/02/22 01:17:38;;;;;;;306.87;32.40;;;5.20;99.90;;;;;;5118778;23;20160;-91
2023/02/22 01:19:41;;;;;;;199.80;25.90;;;5.10;99.90;;;;;;5094175;23;20577;-90
2023/02/22 01:21:42;;;;;;;257.03;27.47;;;5.00;99.90;;;;;;5069653;23;20157;-90
2023/02/22 01:23:46;;;;;;;390.17;31.70;;;4.80;99.90;;;;;;5094067;23;20488;-90
2023/02/22 01:25:47;;;;;;;286.90;27.70;;;4.80;99.90;;;;;;5093944;23;20156;-93
2023/02/22 01:27:49;;;;;;;258.57;27.13;;;4.70;99.90;;;;;;5093761;23;20171;-90
2023/02/22 01:29:50;;;;;;;204.27;26.97;;;4.80;99.90;;;;;;5093766;23;20184;-91
2023/02/22 01:31:53;;;;;;;360.70;30.87;;;4.80;99.90;;;;;;5093844;23;20157;-89
2023/02/22 01:33:54;;;;;;;272.57;28.03;;;4.80;99.90;;;;;;5069678;23;20146;-90
2023/02/22 01:35:55;;;;;;;306.07;29.43;;;4.80;99.90;;;;;;5093870;23;20195;-91
2023/02/22 01:37:56;;;;;;;267.80;26.47;;;4.70;99.90;;;;;;5069532;23;20166;-90
2023/02/22 01:39:57;;;;;;;304.40;28.23;;;4.70;99.90;;;;;;5069392;23;20165;-90
2023/02/22 01:41:58;;;;;;;251.57;25.87;;;4.70;99.90;;;;;;5093531;23;20164;-91
2023/02/22 01:44:25;;;;;;;171.37;24.63;;;4.80;99.90;;;;;;5093317;23;20236;-91
2023/02/22 01:46:26;;;;;;;357.73;30.73;;;4.80;99.90;;;;;;5069066;23;20145;-91
2023/02/22 01:48:33;;;;;;;231.87;25.97;;;4.70;99.90;;;;;;5069230;23;20180;-90
2023/02/22 01:50:39;;;;;;;151.10;24.60;;;4.70;99.90;;;;;;5069389;23;20173;-90
2023/02/22 01:52:40;;;;;;;158.53;23.57;;;5.00;99.90;;;;;;5093987;23;20159;-90
2023/02/22 01:54:51;;;;;;;221.50;27.17;;;5.10;99.90;;;;;;5093675;23;20275;-90
2023/02/22 01:56:55;;;;;;;360.17;30.17;;;5.20;99.90;;;;;;5068946;23;20536;-91
2023/02/22 01:59:01;;;;;;;240.00;26.53;;;5.00;99.90;;;;;;5093724;23;20153;-91
2023/02/22 02:01:01;;;;;;;224.27;27.23;;;4.90;99.90;;;;;;5093616;23;20209;-91
2023/02/22 02:03:08;;;;;;;410.17;31.57;;;4.80;99.90;;;;;;5093699;23;20161;-91
2023/02/22 02:05:09;;;;;;;267.10;26.47;;;4.80;99.90;;;;;;5118410;23;20218;-90
2023/02/22 02:07:16;;;;;;;237.03;25.47;;;4.70;99.90;;;;;;5118281;23;20174;-90
2023/02/22 02:09:32;;;;;;;324.20;28.17;;;4.70;99.90;;;;;;5118154;23;20176;-90
2023/02/22 02:11:33;;;;;;;214.47;23.00;;;4.70;99.90;;;;;;5118532;23;20532;-90
2023/02/22 02:13:34;;;;;;;176.67;25.07;;;4.70;99.90;;;;;;5069387;23;20157;-90
2023/02/22 02:15:35;;;;;;;87.60;21.73;;;4.90;99.90;;;;;;5093339;23;20180;-92
2023/02/22 02:17:36;;;;;;;283.30;28.00;;;5.20;99.90;;;;;;5093577;23;20247;-90
2023/02/22 02:20:07;;;;;;;251.20;25.27;;;5.30;99.90;;;;;;5069371;23;20168;-91
2023/02/22 02:22:25;;;;;;;308.43;27.33;;;5.10;99.90;;;;;;5093957;23;20157;-90
2023/02/22 02:24:38;;;;;;;248.70;24.93;;;4.90;99.90;;;;;;5093111;23;20172;-91
2023/02/22 02:26:42;;;;;;;320.00;27.23;;;4.80;99.90;;;;;;5093518;23;20157;-90
2023/02/22 02:28:54;;;;;;;293.83;27.07;;;4.70;99.90;;;;;;5093621;23;20163;-90
2023/02/22 02:31:34;;;;;;;389.57;29.07;;;4.70;99.90;;;;;;5117868;23;20250;-91
2023/02/22 02:33:55;;;;;;;346.47;28.60;;;4.80;99.90;;;;;;5044295;23;20644;-91
2023/02/22 02:36:08;;;;;;;192.60;24.03;;;4.70;99.90;;;;;;5118089;23;20642;-91
2023/02/22 02:38:21;;;;;;;167.73;23.40;;;4.80;99.90;;;;;;5093409;23;20153;-91
2023/02/22 02:40:46;;;;;;;155.97;24.13;;;4.80;99.90;;;;;;5093681;23;20180;-91
2023/02/22 02:43:11;;;;;;;90.80;23.40;;;4.80;99.90;;;;;;5093526;23;20485;-91
2023/02/22 02:45:21;;;;;;;61.77;21.07;;;4.80;99.90;;;;;;5118053;23;20170;-90
2023/02/22 02:47:29;;;;;;;92.70;22.90;;;4.80;99.90;;;;;;5093386;23;20184;-92
2023/02/22 02:49:50;;;;;;;76.63;22.73;;;4.80;99.90;;;;;;5118026;23;20330;-90
2023/02/22 02:51:53;;;;;;;267.00;26.70;;;4.80;99.90;;;;;;5093419;23;20550;-92
2023/02/22 02:53:56;;;;;;;137.93;23.33;;;4.80;99.90;;;;;;5118048;23;20156;-95
2023/02/22 02:55:58;;;;;;;59.27;22.73;;;4.80;99.90;;;;;;5093255;23;20192;-91
2023/02/22 02:58:03;;;;;;;46.97;22.83;;;4.80;99.90;;;;;;5093324;23;20216;-90
2023/02/22 03:00:24;;;;;;;47.17;21.63;;;4.90;99.90;;;;;;5118131;23;20168;-92
2023/02/22 03:02:36;;;;;;;49.40;21.83;;;4.90;99.90;;;;;;5117994;23;20148;-91
2023/02/22 03:05:08;;;;;;;47.70;21.80;;;5.00;99.90;;;;;;5093300;23;20168;-90
2023/02/22 03:07:22;;;;;;;50.17;23.13;;;5.00;99.90;;;;;;5118049;23;20152;-91
2023/02/22 03:09:51;;;;;;;45.23;22.13;;;5.10;99.90;;;;;;5117802;23;20180;-90
2023/02/22 03:12:17;;;;;;;50.70;22.57;;;5.10;99.90;;;;;;5117996;23;20156;-91
2023/02/22 03:14:47;;;;;;;49.60;23.00;;;5.10;99.90;;;;;;5093311;23;20184;-90
2023/02/22 03:16:56;;;;;;;50.27;22.73;;;5.10;99.90;;;;;;5117761;23;20528;-90
2023/02/22 03:19:33;;;;;;;51.17;22.70;;;5.10;99.90;;;;;;5093610;23;20204;-90
2023/02/22 03:21:43;;;;;;;52.40;22.20;;;5.10;99.90;;;;;;5086521;23;20180;-90
2023/02/22 03:23:47;;;;;;;51.87;22.80;;;5.30;99.90;;;;;;5117801;23;20148;-91
2023/02/22 03:25:53;;;;;;;48.97;22.40;;;5.30;99.90;;;;;;5093401;23;20678;-90
2023/02/22 03:28:01;;;;;;;53.33;23.03;;;5.20;99.90;;;;;;5118294;23;20155;-90
2023/02/22 03:30:18;;;;;;;51.87;22.90;;;5.10;99.90;;;;;;5093332;23;20175;-90
2023/02/22 03:32:22;;;;;;;49.43;23.07;;;5.10;99.90;;;;;;5069126;23;20664;-94
2023/02/22 03:34:31;;;;;;;51.77;22.47;;;5.10;99.90;;;;;;5117818;23;20152;-90
2023/02/22 03:36:54;;;;;;;50.10;22.53;;;5.50;99.90;;;;;;5118692;23;20573;-91
2023/02/22 03:39:00;;;;;;;57.37;22.87;;;5.50;99.90;;;;;;5119298;23;20160;-91
2023/02/22 03:41:02;;;;;;;51.00;22.10;;;5.60;99.90;;;;;;5119080;23;20156;-90
2023/02/22 03:43:13;;;;;;;54.20;23.60;;;5.60;99.90;;;;;;5094674;23;20236;-91
2023/02/22 03:45:20;;;;;;;52.53;23.40;;;5.40;99.90;;;;;;5119371;23;20159;-90
2023/02/22 03:47:29;;;;;;;55.17;22.83;;;5.20;99.90;;;;;;5119510;23;20156;-91
2023/02/22 03:49:35;;;;;;;52.47;23.13;;;5.10;99.90;;;;;;5119147;23;20172;-91
2023/02/22 03:51:36;;;;;;;53.60;22.63;;;5.00;99.90;;;;;;5119421;23;20148;-90
2023/02/22 03:53:37;;;;;;;53.27;23.30;;;5.00;99.90;;;;;;5094673;23;20208;-90
2023/02/22 03:55:39;;;;;;;55.33;22.27;;;5.00;99.90;;;;;;5094794;23;20177;-91
2023/02/22 03:57:45;;;;;;;56.30;23.07;;;5.30;99.90;;;;;;5070409;23;20164;-91
2023/02/22 03:59:46;;;;;;;59.60;23.47;;;5.80;99.90;;;;;;5094313;23;20188;-90
2023/02/22 04:01:49;;;;;;;67.57;23.83;;;6.40;99.90;;;;;;5070214;23;20164;-90
2023/02/22 04:03:50;;;;;;;57.67;23.23;;;6.90;99.90;;;;;;5070253;23;20237;-95
2023/02/22 04:05:51;;;;;;;58.07;24.47;;;7.10;99.90;;;;;;5070154;23;20177;-91
2023/02/22 04:07:55;;;;;;;61.97;26.13;;;7.30;99.90;;;;;;5070264;23;20158;-91
2023/02/22 04:09:56;;;;;;;64.83;25.20;;;7.50;99.90;;;;;;5118996;23;20168;-90
2023/02/22 04:11:57;;;;;;;72.90;25.93;;;7.60;99.90;;;;;;5094463;23;20164;-91
2023/02/22 04:13:59;;;;;;;67.77;25.53;;;7.40;99.90;;;;;;5094828;23;20153;-90
2023/02/22 04:16:00;;;;;;;72.50;26.20;;;7.30;99.90;;;;;;5118563;23;20239;-90
2023/02/22 04:18:01;;;;;;;67.10;26.20;;;6.80;99.90;;;;;;5094174;23;20160;-93
2023/02/22 04:20:03;;;;;;;70.60;26.60;;;6.70;99.90;;;;;;5069763;23;20178;-90
2023/02/22 04:22:14;;;;;;;65.57;25.40;;;6.50;99.90;;;;;;5094440;23;20149;-91
2023/02/22 04:24:15;;;;;;;69.63;26.37;;;6.50;99.90;;;;;;5118972;23;20156;-91
2023/02/22 04:26:16;;;;;;;64.93;26.57;;;6.70;99.90;;;;;;5069955;23;20212;-90
2023/02/22 04:28:21;;;;;;;66.17;25.07;;;6.70;99.90;;;;;;5118489;23;20607;-90
2023/02/22 04:30:38;;;;;;;63.60;25.30;;;6.60;99.90;;;;;;5094102;23;20177;-91
2023/02/22 04:32:43;;;;;;;70.87;24.83;;;6.60;99.90;;;;;;5094168;23;20212;-92
2023/02/22 04:34:44;;;;;;;59.73;24.50;;;6.40;99.90;;;;;;5069605;23;20188;-90
2023/02/22 04:36:45;;;;;;;57.17;24.10;;;6.20;99.90;;;;;;5118627;23;20188;-90
2023/02/22 04:38:46;;;;;;;62.13;25.33;;;5.90;99.90;;;;;;5094267;23;20169;-94
2023/02/22 04:40:47;;;;;;;63.20;25.60;;;5.70;99.90;;;;;;5069527;23;20261;-91
2023/02/22 04:42:48;;;;;;;56.60;24.70;;;5.50;99.90;;;;;;5094420;23;20157;-90
2023/02/22 04:44:49;;;;;;;62.10;24.73;;;5.60;99.90;;;;;;5093981;23;20619;-91
2023/02/22 04:46:51;;;;;;;63.50;23.53;;;5.50;99.90;;;;;;5069949;23;20160;-91
2023/02/22 04:48:53;;;;;;;62.10;24.80;;;5.60;99.90;;;;;;5069699;23;20157;-90
2023/02/22 04:50:56;;;;;;;56.57;23.27;;;5.60;99.90;;;;;;5070080;23;20237;-91
2023/02/22 04:52:57;;;;;;;55.17;24.00;;;5.70;99.90;;;;;;5118438;23;20152;-90
2023/02/22 04:54:58;;;;;;;54.27;24.30;;;5.60;99.90;;;;;;5094043;23;20675;-90
2023/02/22 04:56:59;;;;;;;52.20;23.33;;;5.50;99.90;;;;;;5118515;23;20630;-91
2023/02/22 04:59:00;;;;;;;50.43;22.97;;;5.50;99.90;;;;;;5069619;23;20162;-90
2023/02/22 05:01:02;;;;;;;45.43;21.60;;;5.40;99.90;;;;;;5143640;23;20147;-90
2023/02/22 05:03:03;;;;;;;53.47;23.33;;;5.50;99.90;;;;;;5094270;23;20157;-92
2023/02/22 05:05:03;;;;;;;47.20;22.57;;;5.40;99.90;;;;;;5094681;23;20245;-90
2023/02/22 05:07:04;;;;;;;47.57;21.83;;;5.50;99.90;;;;;;5069665;23;20565;-90
2023/02/22 05:09:05;;;;;;;49.30;22.17;;;5.50;99.90;;;;;;5094129;23;20243;-90
2023/02/22 05:11:06;;;;;;;43.00;20.80;;;5.50;99.90;;;;;;5069779;23;20585;-91
2023/02/22 05:13:08;;;;;;;45.83;21.30;;;5.50;99.90;;;;;;5118596;23;20145;-91
2023/02/22 05:15:09;;;;;;;48.00;22.07;;;5.50;99.90;;;;;;5118429;23;20156;-90
2023/02/22 05:17:10;;;;;;;48.73;21.00;;;5.60;99.90;;;;;;5093604;23;20223;-91
2023/02/22 05:19:11;;;;;;;44.67;20.83;;;6.20;99.90;;;;;;5093760;23;20165;-91
2023/02/22 05:21:12;;;;;;;43.37;20.60;;;6.60;99.90;;;;;;5093955;23;20552;-91
2023/02/22 05:23:13;;;;;;;46.97;20.77;;;6.70;99.90;;;;;;5118669;23;20610;-91
2023/02/22 05:25:13;;;;;;;51.57;22.73;;;6.60;99.90;;;;;;5069577;23;20164;-91
2023/02/22 05:27:14;;;;;;;41.63;20.10;;;6.60;99.90;;;;;;5094335;23;20152;-91
2023/02/22 05:29:15;;;;;;;40.40;19.90;;;6.40;99.90;;;;;;5093482;23;20160;-91
2023/02/22 05:31:16;;;;;;;46.10;20.30;;;6.20;99.90;;;;;;5069230;23;20603;-91
2023/02/22 05:33:17;;;;;;;44.73;20.10;;;6.10;99.90;;;;;;5093828;23;20148;-92
2023/02/22 05:35:19;;;;;;;42.63;20.37;;;6.00;99.90;;;;;;5069283;23;20165;-92
2023/02/22 15:20:41;;;;;;;58.47;30.33;;;10.90;99.90;;;;;;5188857;22;20255;-92
2023/02/22 15:22:59;;;;;;;58.05;30.83;;;10.70;99.90;;;;;;5167764;23;20167;-93
2023/02/22 15:25:08;;;;;;;66.38;34.20;;;10.70;99.90;;;;;;5142800;23;20610;-93
2023/02/22 15:27:16;;;;;;;63.97;32.13;;;10.60;99.90;;;;;;5142541;23;20155;-92
2023/02/22 15:29:25;;;;;;;63.58;31.90;;;10.80;99.90;;;;;;5142943;23;20229;-92
2023/02/22 15:31:37;;;;;;;61.92;32.58;;;10.70;99.90;;;;;;5142482;23;20462;-92
2023/02/22 15:33:39;;;;;;;70.07;34.25;;;10.70;99.90;;;;;;5144248;23;20147;-93
2023/02/22 15:35:39;;;;;;;66.85;32.70;;;10.70;99.90;;;;;;5118933;23;20603;-93
2023/02/22 15:37:43;;;;;;;69.22;32.83;;;10.80;99.90;;;;;;5119401;23;20156;-94
2023/02/22 15:39:46;;;;;;;68.18;33.75;;;10.70;99.90;;;;;;5143962;23;20202;-94
2023/02/22 15:41:47;;;;;;;65.68;33.38;;;10.70;99.90;;;;;;5119730;23;20227;-93
2023/02/22 15:44:07;;;;;;;66.30;34.15;;;10.80;99.90;;;;;;5119078;23;20149;-93
2023/02/22 15:46:08;;;;;;;74.43;34.58;;;10.70;99.90;;;;;;5119370;23;20728;-92
2023/02/22 15:48:13;;;;;;;82.20;38.90;;;10.40;99.90;;;;;;5119497;23;20703;-93
2023/02/22 15:50:32;;;;;;;77.22;36.83;;;10.40;99.90;;;;;;5119431;23;20168;-94
2023/02/22 15:52:32;;;;;;;74.70;36.00;;;10.50;99.90;;;;;;5144045;23;20152;-93
2023/02/22 15:54:48;;;;;;;77.80;36.47;;;10.50;99.90;;;;;;5119231;23;20148;-94
2023/02/22 15:56:55;;;;;;;88.28;38.63;;;10.50;99.90;;;;;;5144287;23;20223;-92
2023/02/22 15:59:02;;;;;;;78.55;37.08;;;10.60;99.90;;;;;;5119202;23;20232;-93
2023/02/22 16:01:11;;;;;;;89.13;44.13;;;10.60;99.90;;;;;;5119124;23;20259;-93
2023/02/22 16:03:15;;;;;;;95.60;41.33;;;10.60;99.90;;;;;;5119541;23;20231;-94
2023/02/22 16:05:17;;;;;;;84.70;38.67;;;10.60;99.90;;;;;;5119566;23;20144;-95
2023/02/22 16:07:23;;;;;;;82.65;37.85;;;10.60;99.90;;;;;;5144084;23;20429;-93
2023/02/22 16:09:29;;;;;;;79.72;38.42;;;10.60;99.90;;;;;;5144377;23;20257;-94
2023/02/22 16:11:38;;;;;;;80.38;38.53;;;10.70;99.90;;;;;;5144296;23;20159;-93
2023/02/22 16:13:49;;;;;;;87.95;38.70;;;10.60;99.90;;;;;;5118637;23;20148;-93
2023/02/22 16:16:01;;;;;;;81.07;37.97;;;10.60;99.90;;;;;;5119011;23;20234;-94
2023/02/22 16:18:33;;;;;;;82.38;38.08;;;10.60;99.90;;;;;;5119677;23;20227;-93
2023/02/22 16:20:35;;;;;;;90.65;38.60;;;10.80;99.90;;;;;;5118342;23;20266;-94
2023/02/22 16:22:37;;;;;;;84.93;39.80;;;10.80;99.90;;;;;;5143671;23;20154;-94
2023/02/22 16:24:38;;;;;;;77.57;36.75;;;10.80;99.90;;;;;;5119295;23;20194;-92
2023/02/22 16:26:40;;;;;;;88.47;38.95;;;10.80;99.90;;;;;;5143626;23;20151;-92
2023/02/22 16:28:51;;;;;;;84.20;38.00;;;10.70;99.90;;;;;;5118866;23;20164;-93
2023/02/22 16:30:57;;;;;;;78.68;38.55;;;10.80;99.90;;;;;;5143598;23;20221;-94
2023/02/22 16:33:04;;;;;;;111.45;55.20;;;10.90;99.90;;;;;;5119274;23;20164;-95
2023/02/22 16:35:17;;;;;;;106.72;58.30;;;10.80;99.90;;;;;;5145704;23;20154;-93
2023/02/22 16:37:24;;;;;;;80.35;37.22;;;10.80;99.90;;;;;;5119475;23;20316;-92
2023/02/22 16:39:39;;;;;;;96.10;44.05;;;10.90;99.90;;;;;;5118840;23;20161;-94
2023/02/22 16:41:40;;;;;;;79.05;37.75;;;10.90;99.90;;;;;;5119093;23;20160;-91
2023/02/22 16:43:51;;;;;;;72.07;36.88;;;10.90;99.90;;;;;;5118909;23;20152;-93
2023/02/22 16:46:00;;;;;;;89.28;40.38;;;11.10;99.90;;;;;;5144997;23;20210;-94
2023/02/22 16:48:15;;;;;;;78.55;39.13;;;11.10;99.90;;;;;;5143868;23;20156;-93
2023/02/22 16:50:26;;;;;;;130.98;73.85;;;10.90;99.90;;;;;;5118210;23;20176;-92
2023/02/22 16:52:27;;;;;;;98.57;51.60;;;10.90;99.90;;;;;;5143858;23;20459;-94
2023/02/22 16:54:40;;;;;;;86.78;38.28;;;10.90;99.90;;;;;;5118888;23;20156;-93
2023/02/22 16:56:40;;;;;;;79.80;37.53;;;11.00;99.90;;;;;;5118964;23;20191;-94
2023/02/22 16:58:46;;;;;;;86.57;40.95;;;11.00;99.90;;;;;;5143845;23;20156;-93
2023/02/22 17:00:47;;;;;;;85.45;36.65;;;11.10;99.90;;;;;;5118529;23;20200;-93
2023/02/22 17:02:50;;;;;;;82.78;36.75;;;11.10;99.90;;;;;;5143730;23;20154;-94
2023/02/22 17:04:55;;;;;;;83.60;43.42;;;11.10;99.90;;;;;;5118401;23;20152;-95
2023/02/22 17:07:01;;;;;;;75.00;38.08;;;11.00;99.90;;;;;;5118765;23;20504;-92
2023/02/22 17:09:02;;;;;;;77.40;38.22;;;11.00;99.90;;;;;;5118952;23;20201;-92
2023/02/22 17:11:04;;;;;;;85.32;37.78;;;11.00;99.90;;;;;;5143434;23;20171;-93
2023/02/22 17:13:06;;;;;;;76.00;37.20;;;11.00;99.90;;;;;;5118399;23;20205;-93
2023/02/22 17:15:09;;;;;;;76.38;38.95;;;11.20;99.90;;;;;;5118687;23;20515;-93
2023/02/22 17:17:12;;;;;;;80.00;38.72;;;11.20;99.90;;;;;;5118784;23;20211;-94
2023/02/22 17:19:18;;;;;;;83.82;40.50;;;11.20;99.90;;;;;;5118732;23;20603;-93
2023/02/22 17:21:21;;;;;;;85.75;38.92;;;11.30;99.90;;;;;;5143554;23;20306;-93
2023/02/22 17:23:23;;;;;;;77.65;37.70;;;11.20;99.90;;;;;;5118935;23;20627;-93
2023/02/22 17:25:30;;;;;;;81.57;39.13;;;11.20;99.90;;;;;;5118223;23;20231;-94
2023/02/22 17:27:31;;;;;;;82.15;39.58;;;11.30;99.90;;;;;;5143918;23;20288;-94
2023/02/22 17:29:32;;;;;;;80.88;38.88;;;11.20;99.90;;;;;;5143728;23;20175;-93
2023/02/22 17:31:34;;;;;;;76.13;37.97;;;11.20;99.90;;;;;;5143455;23;20151;-94
2023/02/22 17:33:39;;;;;;;75.25;38.92;;;11.20;99.90;;;;;;5143690;23;20199;-94
2023/02/22 17:36:02;;;;;;;82.68;39.85;;;11.00;99.90;;;;;;5145524;22;20251;-95
2023/02/22 17:38:54;;;;;;;83.40;38.67;;;11.10;99.90;;;;;;5118400;23;20183;-93
2023/02/22 17:41:18;;;;;;;87.22;39.42;;;11.20;99.90;;;;;;5087687;23;20153;-95
2023/02/22 17:43:39;;;;;;;86.10;39.13;;;11.10;99.90;;;;;;5093885;23;20142;-95
2023/02/22 17:45:48;;;;;;;77.72;37.28;;;11.00;99.90;;;;;;5086078;23;20153;-93
2023/02/22 17:48:35;;;;;;;84.93;39.55;;;11.10;99.90;;;;;;5096492;23;20157;-93
2023/02/22 17:51:01;;;;;;;82.05;38.58;;;11.10;99.90;;;;;;5095069;23;20200;-94
2023/02/22 17:53:11;;;;;;;82.47;39.65;;;11.10;99.90;;;;;;5070032;23;20249;-93
2023/02/22 17:55:39;;;;;;;;;;;;;;;;;;;;;
2023/02/22 17:58:22;;;;;;;84.25;39.47;;;11.10;99.90;;;;;;5119557;23;20228;-94
2023/02/22 18:00:57;;;;;;;88.88;40.78;;;10.90;99.90;;;;;;5097811;23;20173;-95
2023/02/22 18:11:50;;;;;;;84.65;39.03;;;11.00;99.90;;;;;;5114506;23;20474;-95
2023/02/22 18:14:02;;;;;;;94.53;40.92;;;11.00;99.90;;;;;;5069497;23;20177;-95
2023/02/22 18:16:21;;;;;;;90.00;40.25;;;11.10;99.90;;;;;;5093441;23;20192;-95
2023/02/22 18:18:51;;;;;;;97.68;42.22;;;11.20;99.90;;;;;;5118776;23;20148;-94
2023/02/22 18:21:02;;;;;;;97.85;41.80;;;11.30;99.90;;;;;;5095430;23;20196;-96
2023/02/22 18:23:07;;;;;;;94.40;42.95;;;11.20;99.90;;;;;;5093983;23;20214;-95
2023/02/22 18:25:14;;;;;;;99.13;43.72;;;11.30;99.90;;;;;;5069474;23;20150;-95
2023/02/22 18:27:15;;;;;;;102.72;43.53;;;11.40;99.90;;;;;;5093281;23;20520;-95
2023/02/22 18:29:16;;;;;;;96.47;44.10;;;11.40;99.90;;;;;;5068844;23;20237;-95
2023/02/22 18:31:26;;;;;;;97.20;44.05;;;11.20;99.90;;;;;;5117872;23;20152;-93
2023/02/22 18:33:27;;;;;;;97.82;43.95;;;11.10;99.90;;;;;;5069080;23;20615;-94
2023/02/22 18:35:33;;;;;;;99.47;43.55;;;10.90;99.90;;;;;;5093575;23;20165;-95
2023/02/22 18:37:51;;;;;;;82.13;40.53;;;10.70;99.90;;;;;;5068929;23;20739;-96
2023/02/22 18:39:55;;;;;;;92.07;40.72;;;10.50;99.90;;;;;;5068990;23;20174;-94
2023/02/22 18:41:56;;;;;;;88.38;40.88;;;10.50;99.90;;;;;;5069318;23;20193;-94
2023/02/22 18:44:04;;;;;;;86.85;40.25;;;10.60;99.90;;;;;;5069479;23;20146;-93
2023/02/22 18:46:14;;;;;;;82.05;39.90;;;10.40;99.90;;;;;;5069121;23;20150;-94
2023/02/22 18:48:15;;;;;;;86.00;40.60;;;10.40;99.90;;;;;;5069531;23;20161;-96
2023/02/22 18:50:16;;;;;;;83.05;40.40;;;10.50;99.90;;;;;;5069095;23;20201;-95
2023/02/22 18:52:25;;;;;;;91.28;40.70;;;10.40;99.90;;;;;;5069239;23;20160;-93
2023/02/22 18:54:37;;;;;;;85.07;42.05;;;10.40;99.90;;;;;;5069375;23;20181;-94
2023/02/22 18:57:04;;;;;;;84.78;39.90;;;10.30;99.90;;;;;;5070698;23;20213;-95
2023/02/22 19:01:47;;;;;;;83.88;41.00;;;10.40;99.90;;;;;;5093796;23;20157;-95
2023/02/22 19:03:56;;;;;;;81.05;39.33;;;10.40;99.90;;;;;;5070704;23;20178;-95
2023/02/22 19:06:01;;;;;;;81.18;39.55;;;10.50;99.90;;;;;;5094838;23;20236;-95
2023/02/22 19:08:03;;;;;;;85.15;41.53;;;10.40;99.90;;;;;;5070427;23;20154;-93
2023/02/22 19:10:04;;;;;;;78.35;38.20;;;10.30;99.90;;;;;;5094679;23;20207;-94
2023/02/22 19:12:05;;;;;;;75.82;38.22;;;10.30;99.90;;;;;;5094832;23;20149;-94
2023/02/22 19:14:08;;;;;;;74.63;38.03;;;10.30;99.90;;;;;;5095197;23;20671;-94
2023/02/22 19:16:09;;;;;;;81.32;38.40;;;10.20;99.90;;;;;;5070318;23;20187;-95
2023/02/22 19:18:09;;;;;;;79.28;38.30;;;10.30;99.90;;;;;;5094738;23;20153;-93
2023/02/22 19:20:10;;;;;;;79.65;38.25;;;10.20;99.90;;;;;;5070419;23;20174;-93
2023/02/22 19:22:13;;;;;;;83.32;39.47;;;10.20;99.90;;;;;;5119369;23;20228;-91
2023/02/22 19:24:17;;;;;;;76.00;38.17;;;10.30;99.90;;;;;;5070478;23;20215;-93
2023/02/22 19:26:22;;;;;;;74.35;38.60;;;10.40;99.90;;;;;;5070511;23;20221;-93
2023/02/22 19:28:32;;;;;;;77.38;38.42;;;10.40;99.90;;;;;;5094819;23;20490;-94
2023/02/22 19:30:33;;;;;;;75.43;38.30;;;10.50;99.90;;;;;;5119262;23;20168;-93
2023/02/22 19:32:35;;;;;;;78.38;38.55;;;10.40;99.90;;;;;;5094598;23;20179;-91
2023/02/22 19:34:36;;;;;;;71.45;37.58;;;10.30;99.90;;;;;;5070424;23;20150;-92
2023/02/22 19:36:44;;;;;;;72.05;37.78;;;10.40;99.90;;;;;;5119281;23;20187;-92
2023/02/22 19:38:45;;;;;;;69.60;36.80;;;10.50;99.90;;;;;;5094524;23;20148;-91
2023/02/22 19:40:47;;;;;;;81.88;39.20;;;10.40;99.90;;;;;;5070373;23;20192;-92
2023/02/22 19:42:51;;;;;;;72.95;38.50;;;10.40;99.90;;;;;;5070264;23;20213;-92
2023/02/22 19:44:52;;;;;;;81.97;40.83;;;10.50;99.90;;;;;;5070249;23;20157;-92
2023/02/22 19:46:56;;;;;;;74.38;37.97;;;10.40;99.90;;;;;;5070484;23;20146;-92
2023/02/22 19:48:57;;;;;;;76.57;38.92;;;10.40;99.90;;;;;;5070715;23;20180;-92
2023/02/22 19:51:05;;;;;;;71.55;36.67;;;10.50;99.90;;;;;;5070214;23;20209;-93
2023/02/22 19:53:12;;;;;;;78.30;37.08;;;10.50;99.90;;;;;;5095005;23;20236;-92
2023/02/22 19:55:13;;;;;;;68.65;36.90;;;10.50;99.90;;;;;;5070310;23;20520;-94
2023/02/22 19:57:14;;;;;;;70.15;37.30;;;10.40;99.90;;;;;;5070110;23;20186;-91
2023/02/22 19:59:20;;;;;;;69.40;38.17;;;10.50;99.90;;;;;;5095198;23;20152;-92
2023/02/22 20:01:23;;;;;;;72.22;37.05;;;10.60;99.90;;;;;;5070038;23;20157;-91
2023/02/22 20:03:25;;;;;;;68.43;38.28;;;10.40;99.90;;;;;;5095036;23;20208;-91
2023/02/22 20:05:26;;;;;;;77.43;37.80;;;10.30;99.90;;;;;;5094600;23;20161;-92
2023/02/22 20:07:26;;;;;;;72.13;36.95;;;10.40;99.90;;;;;;5070004;23;20212;-94
2023/02/22 20:09:28;;;;;;;72.07;39.63;;;10.50;99.90;;;;;;5070061;23;20528;-93
2023/02/22 20:11:29;;;;;;;77.30;38.00;;;10.50;99.90;;;;;;5094383;23;20148;-91
2023/02/22 20:13:30;;;;;;;72.70;39.10;;;10.50;99.90;;;;;;5118952;23;20476;-92
2023/02/22 20:15:32;;;;;;;70.72;37.80;;;10.60;99.90;;;;;;5094300;23;20157;-92
2023/02/22 20:17:33;;;;;;;66.05;37.55;;;10.40;99.90;;;;;;5069429;23;20192;-91
2023/02/22 20:19:36;;;;;;;72.47;36.58;;;10.30;99.90;;;;;;5105843;23;20165;-93
2023/02/22 20:21:36;;;;;;;71.30;37.72;;;10.10;99.90;;;;;;5092113;23;20154;-92
2023/02/22 20:23:40;;;;;;;69.10;36.50;;;10.20;99.90;;;;;;5092847;23;20181;-92
2023/02/22 20:25:41;;;;;;;78.57;38.92;;;10.20;99.90;;;;;;5087864;23;20166;-91
2023/02/22 20:27:42;;;;;;;74.78;37.22;;;10.40;99.90;;;;;;5096135;23;20157;-93
2023/02/22 20:29:42;;;;;;;71.55;37.20;;;10.40;99.90;;;;;;5070019;23;20169;-91
2023/02/22 20:31:47;;;;;;;71.18;38.55;;;10.50;99.90;;;;;;5119143;23;20153;-91
2023/02/22 20:33:52;;;;;;;71.60;37.65;;;10.60;99.90;;;;;;5094460;23;20469;-92
2023/02/22 20:35:53;;;;;;;68.68;38.65;;;10.40;99.90;;;;;;5069671;23;20169;-93
2023/02/22 20:37:54;;;;;;;85.20;38.72;;;10.40;99.90;;;;;;5093968;23;20168;-92